sensor_id;sensor_type;location;lat;lon;timestamp;temperature;humidity
50758;DHT22;36732;47.980;11.652;2023-04-24T00:00:09;15.10;64.70
50758;DHT22;36732;47.980;11.652;2023-04-24T00:02:36;15.10;64.80
50758;DHT22;36732;47.980;11.652;2023-04-24T00:05:05;15.10;64.70
50758;DHT22;36732;47.980;11.652;2023-04-24T00:07:32;15.10;64.60
50758;DHT22;36732;47.980;11.652;2023-04-24T00:09:58;15.10;64.60
50758;DHT22;36732;47.980;11.652;2023-04-24T00:12:25;15.10;65.30
50758;DHT22;36732;47.980;11.652;2023-04-24T00:14:51;15.10;64.50
50758;DHT22;36732;47.980;11.652;2023-04-24T00:17:17;15.10;64.40
50758;DHT22;36732;47.980;11.652;2023-04-24T00:19:45;15.00;64.40
50758;DHT22;36732;47.980;11.652;2023-04-24T00:22:12;15.00;64.50
50758;DHT22;36732;47.980;11.652;2023-04-24T00:24:39;15.00;64.40
50758;DHT22;36732;47.980;11.652;2023-04-24T00:27:04;15.00;64.30
50758;DHT22;36732;47.980;11.652;2023-04-24T00:29:30;15.00;64.30
50758;DHT22;36732;47.980;11.652;2023-04-24T00:31:56;15.00;64.30
50758;DHT22;36732;47.980;11.652;2023-04-24T00:34:22;15.00;64.20
50758;DHT22;36732;47.980;11.652;2023-04-24T00:36:47;15.00;64.10
50758;DHT22;36732;47.980;11.652;2023-04-24T00:39:20;14.90;64.00
50758;DHT22;36732;47.980;11.652;2023-04-24T00:41:46;14.90;63.90
50758;DHT22;36732;47.980;11.652;2023-04-24T00:44:13;14.90;64.00
50758;DHT22;36732;47.980;11.652;2023-04-24T00:46:40;14.90;64.00
50758;DHT22;36732;47.980;11.652;2023-04-24T00:49:06;14.90;64.00
50758;DHT22;36732;47.980;11.652;2023-04-24T00:51:32;14.90;63.90
50758;DHT22;36732;47.980;11.652;2023-04-24T00:54:00;14.90;63.90
50758;DHT22;36732;47.980;11.652;2023-04-24T00:56:26;14.90;63.60
50758;DHT22;36732;47.980;11.652;2023-04-24T00:58:52;14.80;63.60
50758;DHT22;36732;47.980;11.652;2023-04-24T01:01:22;14.80;63.60
50758;DHT22;36732;47.980;11.652;2023-04-24T01:03:49;14.80;63.40
50758;DHT22;36732;47.980;11.652;2023-04-24T01:06:16;14.80;63.60
50758;DHT22;36732;47.980;11.652;2023-04-24T01:08:45;14.80;63.60
50758;DHT22;36732;47.980;11.652;2023-04-24T01:11:12;14.80;63.60
50758;DHT22;36732;47.980;11.652;2023-04-24T01:13:37;14.80;63.60
50758;DHT22;36732;47.980;11.652;2023-04-24T01:16:03;14.80;63.60
50758;DHT22;36732;47.980;11.652;2023-04-24T01:18:29;14.80;63.50
50758;DHT22;36732;47.980;11.652;2023-04-24T01:20:59;14.70;63.50
50758;DHT22;36732;47.980;11.652;2023-04-24T01:23:27;14.70;63.40
50758;DHT22;36732;47.980;11.652;2023-04-24T01:25:53;14.70;63.40
50758;DHT22;36732;47.980;11.652;2023-04-24T01:28:19;14.70;63.50
50758;DHT22;36732;47.980;11.652;2023-04-24T01:30:45;14.70;63.50
50758;DHT22;36732;47.980;11.652;2023-04-24T01:33:11;14.70;63.60
50758;DHT22;36732;47.980;11.652;2023-04-24T01:35:37;14.70;63.50
50758;DHT22;36732;47.980;11.652;2023-04-24T01:38:04;14.70;63.50
50758;DHT22;36732;47.980;11.652;2023-04-24T01:40:31;14.70;63.50
50758;DHT22;36732;47.980;11.652;2023-04-24T01:42:58;14.60;63.50
50758;DHT22;36732;47.980;11.652;2023-04-24T01:45:24;14.70;63.50
50758;DHT22;36732;47.980;11.652;2023-04-24T01:47:50;14.70;63.20
50758;DHT22;36732;47.980;11.652;2023-04-24T01:50:17;14.60;63.30
50758;DHT22;36732;47.980;11.652;2023-04-24T01:52:43;14.60;63.40
50758;DHT22;36732;47.980;11.652;2023-04-24T01:55:10;14.60;63.30
50758;DHT22;36732;47.980;11.652;2023-04-24T01:57:36;14.60;63.20
50758;DHT22;36732;47.980;11.652;2023-04-24T02:00:03;14.60;63.20
50758;DHT22;36732;47.980;11.652;2023-04-24T02:02:30;14.60;63.10
50758;DHT22;36732;47.980;11.652;2023-04-24T02:04:56;14.60;63.10
50758;DHT22;36732;47.980;11.652;2023-04-24T02:07:22;14.50;63.00
50758;DHT22;36732;47.980;11.652;2023-04-24T02:09:48;14.60;63.10
50758;DHT22;36732;47.980;11.652;2023-04-24T02:12:15;14.60;62.90
50758;DHT22;36732;47.980;11.652;2023-04-24T02:14:43;14.60;62.90
50758;DHT22;36732;47.980;11.652;2023-04-24T02:17:09;14.60;62.90
50758;DHT22;36732;47.980;11.652;2023-04-24T02:19:35;14.50;62.80
50758;DHT22;36732;47.980;11.652;2023-04-24T02:22:00;14.50;62.70
50758;DHT22;36732;47.980;11.652;2023-04-24T02:24:26;14.50;63.40
50758;DHT22;36732;47.980;11.652;2023-04-24T02:26:52;14.50;62.80
50758;DHT22;36732;47.980;11.652;2023-04-24T02:29:17;14.50;62.80
50758;DHT22;36732;47.980;11.652;2023-04-24T02:31:43;14.50;62.90
50758;DHT22;36732;47.980;11.652;2023-04-24T02:34:09;14.50;62.80
50758;DHT22;36732;47.980;11.652;2023-04-24T02:36:34;14.50;62.80
50758;DHT22;36732;47.980;11.652;2023-04-24T02:39:00;14.50;62.80
50758;DHT22;36732;47.980;11.652;2023-04-24T02:41:26;14.40;62.70
50758;DHT22;36732;47.980;11.652;2023-04-24T02:43:57;14.50;62.80
50758;DHT22;36732;47.980;11.652;2023-04-24T02:46:23;14.40;62.80
50758;DHT22;36732;47.980;11.652;2023-04-24T02:48:49;14.50;62.90
50758;DHT22;36732;47.980;11.652;2023-04-24T02:51:15;14.50;62.90
50758;DHT22;36732;47.980;11.652;2023-04-24T02:53:41;14.40;62.90
50758;DHT22;36732;47.980;11.652;2023-04-24T02:56:06;14.40;62.90
50758;DHT22;36732;47.980;11.652;2023-04-24T02:58:32;14.40;63.00
50758;DHT22;36732;47.980;11.652;2023-04-24T03:00:58;14.50;63.10
50758;DHT22;36732;47.980;11.652;2023-04-24T03:03:24;14.40;63.10
50758;DHT22;36732;47.980;11.652;2023-04-24T03:05:49;14.40;63.10
50758;DHT22;36732;47.980;11.652;2023-04-24T03:08:15;14.40;63.10
50758;DHT22;36732;47.980;11.652;2023-04-24T03:10:41;14.40;63.10
50758;DHT22;36732;47.980;11.652;2023-04-24T03:13:07;14.40;63.20
50758;DHT22;36732;47.980;11.652;2023-04-24T03:15:32;14.40;63.30
50758;DHT22;36732;47.980;11.652;2023-04-24T03:17:58;14.40;63.20
50758;DHT22;36732;47.980;11.652;2023-04-24T03:20:26;14.40;63.30
50758;DHT22;36732;47.980;11.652;2023-04-24T03:22:51;14.40;63.20
50758;DHT22;36732;47.980;11.652;2023-04-24T03:25:17;14.30;63.30
50758;DHT22;36732;47.980;11.652;2023-04-24T03:27:43;14.40;63.40
50758;DHT22;36732;47.980;11.652;2023-04-24T03:30:10;14.30;63.30
50758;DHT22;36732;47.980;11.652;2023-04-24T03:32:36;14.30;63.40
50758;DHT22;36732;47.980;11.652;2023-04-24T03:35:01;14.30;63.30
50758;DHT22;36732;47.980;11.652;2023-04-24T03:37:27;14.30;63.40
50758;DHT22;36732;47.980;11.652;2023-04-24T03:39:53;14.30;63.40
50758;DHT22;36732;47.980;11.652;2023-04-24T03:42:19;14.30;63.40
50758;DHT22;36732;47.980;11.652;2023-04-24T03:44:45;14.30;63.40
50758;DHT22;36732;47.980;11.652;2023-04-24T03:47:10;14.30;63.40
50758;DHT22;36732;47.980;11.652;2023-04-24T03:49:36;14.30;63.40
50758;DHT22;36732;47.980;11.652;2023-04-24T03:52:02;14.30;63.40
50758;DHT22;36732;47.980;11.652;2023-04-24T03:54:28;14.20;63.40
50758;DHT22;36732;47.980;11.652;2023-04-24T03:56:53;14.20;63.40
50758;DHT22;36732;47.980;11.652;2023-04-24T03:59:19;14.20;63.40
50758;DHT22;36732;47.980;11.652;2023-04-24T04:01:45;14.20;63.40
50758;DHT22;36732;47.980;11.652;2023-04-24T04:04:11;14.20;63.50
50758;DHT22;36732;47.980;11.652;2023-04-24T04:06:37;14.20;63.50
50758;DHT22;36732;47.980;11.652;2023-04-24T04:09:03;14.20;63.60
50758;DHT22;36732;47.980;11.652;2023-04-24T04:11:29;14.20;63.60
50758;DHT22;36732;47.980;11.652;2023-04-24T04:13:55;14.20;63.70
50758;DHT22;36732;47.980;11.652;2023-04-24T04:16:22;14.20;63.70
50758;DHT22;36732;47.980;11.652;2023-04-24T04:18:48;14.20;63.70
50758;DHT22;36732;47.980;11.652;2023-04-24T04:21:14;14.20;63.70
50758;DHT22;36732;47.980;11.652;2023-04-24T04:23:39;14.20;64.30
50758;DHT22;36732;47.980;11.652;2023-04-24T04:26:05;14.10;63.80
50758;DHT22;36732;47.980;11.652;2023-04-24T04:28:31;14.20;63.80
50758;DHT22;36732;47.980;11.652;2023-04-24T04:30:57;14.20;63.90
50758;DHT22;36732;47.980;11.652;2023-04-24T04:33:24;14.20;63.80
50758;DHT22;36732;47.980;11.652;2023-04-24T04:35:50;14.10;63.80
50758;DHT22;36732;47.980;11.652;2023-04-24T04:38:19;14.20;63.80
50758;DHT22;36732;47.980;11.652;2023-04-24T04:40:45;14.10;63.80
50758;DHT22;36732;47.980;11.652;2023-04-24T04:43:12;14.20;63.80
50758;DHT22;36732;47.980;11.652;2023-04-24T04:45:38;14.10;63.80
50758;DHT22;36732;47.980;11.652;2023-04-24T04:48:06;14.10;63.70
50758;DHT22;36732;47.980;11.652;2023-04-24T04:50:38;14.10;63.70
50758;DHT22;36732;47.980;11.652;2023-04-24T04:53:04;14.10;63.80
50758;DHT22;36732;47.980;11.652;2023-04-24T04:55:30;14.10;63.70
50758;DHT22;36732;47.980;11.652;2023-04-24T04:57:56;14.10;63.80
50758;DHT22;36732;47.980;11.652;2023-04-24T05:00:22;14.10;63.80
50758;DHT22;36732;47.980;11.652;2023-04-24T05:02:50;14.10;63.80
50758;DHT22;36732;47.980;11.652;2023-04-24T05:05:17;14.10;63.90
50758;DHT22;36732;47.980;11.652;2023-04-24T05:07:43;14.10;63.80
50758;DHT22;36732;47.980;11.652;2023-04-24T05:10:10;14.10;63.90
50758;DHT22;36732;47.980;11.652;2023-04-24T05:12:36;14.10;63.90
50758;DHT22;36732;47.980;11.652;2023-04-24T05:15:02;14.10;64.00
50758;DHT22;36732;47.980;11.652;2023-04-24T05:17:28;14.00;63.90
50758;DHT22;36732;47.980;11.652;2023-04-24T05:19:54;14.10;63.90
50758;DHT22;36732;47.980;11.652;2023-04-24T05:22:19;14.10;63.90
50758;DHT22;36732;47.980;11.652;2023-04-24T05:24:46;14.00;63.90
50758;DHT22;36732;47.980;11.652;2023-04-24T05:27:13;14.00;63.90
50758;DHT22;36732;47.980;11.652;2023-04-24T05:29:39;14.00;63.90
50758;DHT22;36732;47.980;11.652;2023-04-24T05:32:05;14.00;64.00
50758;DHT22;36732;47.980;11.652;2023-04-24T05:34:31;14.00;64.00
50758;DHT22;36732;47.980;11.652;2023-04-24T05:36:57;14.00;64.00
50758;DHT22;36732;47.980;11.652;2023-04-24T05:39:23;14.00;64.00
50758;DHT22;36732;47.980;11.652;2023-04-24T05:41:50;14.00;63.90
50758;DHT22;36732;47.980;11.652;2023-04-24T05:44:16;14.00;63.80
50758;DHT22;36732;47.980;11.652;2023-04-24T05:46:42;14.00;63.70
50758;DHT22;36732;47.980;11.652;2023-04-24T05:49:07;14.00;63.70
50758;DHT22;36732;47.980;11.652;2023-04-24T05:51:33;14.00;63.80
50758;DHT22;36732;47.980;11.652;2023-04-24T05:53:59;14.00;63.90
50758;DHT22;36732;47.980;11.652;2023-04-24T05:56:25;14.00;63.90
50758;DHT22;36732;47.980;11.652;2023-04-24T05:58:50;14.00;64.50
50758;DHT22;36732;47.980;11.652;2023-04-24T06:01:16;14.00;63.80
50758;DHT22;36732;47.980;11.652;2023-04-24T06:03:42;14.00;63.70
50758;DHT22;36732;47.980;11.652;2023-04-24T06:06:08;14.00;63.90
50758;DHT22;36732;47.980;11.652;2023-04-24T06:08:34;14.00;63.80
50758;DHT22;36732;47.980;11.652;2023-04-24T06:11:00;14.00;63.70
50758;DHT22;36732;47.980;11.652;2023-04-24T06:13:26;14.00;63.80
50758;DHT22;36732;47.980;11.652;2023-04-24T06:15:52;14.00;64.00
50758;DHT22;36732;47.980;11.652;2023-04-24T06:18:18;14.00;63.90
50758;DHT22;36732;47.980;11.652;2023-04-24T06:20:45;14.00;64.00
50758;DHT22;36732;47.980;11.652;2023-04-24T06:23:11;14.00;64.00
50758;DHT22;36732;47.980;11.652;2023-04-24T06:25:37;14.00;64.00
50758;DHT22;36732;47.980;11.652;2023-04-24T06:28:03;14.00;64.00
50758;DHT22;36732;47.980;11.652;2023-04-24T06:30:29;14.00;63.80
50758;DHT22;36732;47.980;11.652;2023-04-24T06:32:55;14.00;63.70
50758;DHT22;36732;47.980;11.652;2023-04-24T06:35:20;14.00;63.80
50758;DHT22;36732;47.980;11.652;2023-04-24T06:37:46;14.00;64.00
50758;DHT22;36732;47.980;11.652;2023-04-24T06:40:12;14.00;64.00
50758;DHT22;36732;47.980;11.652;2023-04-24T06:42:38;14.00;64.10
50758;DHT22;36732;47.980;11.652;2023-04-24T06:45:04;14.00;64.00
50758;DHT22;36732;47.980;11.652;2023-04-24T06:47:30;14.00;64.00
50758;DHT22;36732;47.980;11.652;2023-04-24T06:49:56;14.00;64.20
50758;DHT22;36732;47.980;11.652;2023-04-24T06:52:22;14.00;64.20
50758;DHT22;36732;47.980;11.652;2023-04-24T06:54:48;14.00;64.10
50758;DHT22;36732;47.980;11.652;2023-04-24T06:57:14;14.10;64.30
50758;DHT22;36732;47.980;11.652;2023-04-24T06:59:41;14.10;64.20
50758;DHT22;36732;47.980;11.652;2023-04-24T07:02:07;14.10;64.30
50758;DHT22;36732;47.980;11.652;2023-04-24T07:04:33;14.10;64.40
50758;DHT22;36732;47.980;11.652;2023-04-24T07:06:59;14.10;64.50
50758;DHT22;36732;47.980;11.652;2023-04-24T07:09:26;14.10;65.10
50758;DHT22;36732;47.980;11.652;2023-04-24T07:11:52;14.10;64.30
50758;DHT22;36732;47.980;11.652;2023-04-24T07:14:19;14.10;65.00
50758;DHT22;36732;47.980;11.652;2023-04-24T07:16:44;14.10;64.50
50758;DHT22;36732;47.980;11.652;2023-04-24T07:19:11;14.10;64.50
50758;DHT22;36732;47.980;11.652;2023-04-24T07:21:37;14.10;64.50
50758;DHT22;36732;47.980;11.652;2023-04-24T07:24:03;14.10;64.60
50758;DHT22;36732;47.980;11.652;2023-04-24T07:26:30;14.20;64.70
50758;DHT22;36732;47.980;11.652;2023-04-24T07:28:56;14.20;64.80
50758;DHT22;36732;47.980;11.652;2023-04-24T07:31:22;14.20;64.70
50758;DHT22;36732;47.980;11.652;2023-04-24T07:33:48;14.20;64.70
50758;DHT22;36732;47.980;11.652;2023-04-24T07:36:14;14.30;64.50
50758;DHT22;36732;47.980;11.652;2023-04-24T07:38:45;14.20;64.20
50758;DHT22;36732;47.980;11.652;2023-04-24T07:41:12;14.30;64.30
50758;DHT22;36732;47.980;11.652;2023-04-24T07:43:38;14.30;64.40
50758;DHT22;36732;47.980;11.652;2023-04-24T07:46:04;14.30;64.40
50758;DHT22;36732;47.980;11.652;2023-04-24T07:48:29;14.30;64.20
50758;DHT22;36732;47.980;11.652;2023-04-24T07:50:55;14.30;64.20
50758;DHT22;36732;47.980;11.652;2023-04-24T07:53:22;14.30;64.30
50758;DHT22;36732;47.980;11.652;2023-04-24T07:55:48;14.40;64.30
50758;DHT22;36732;47.980;11.652;2023-04-24T07:58:13;14.40;64.20
50758;DHT22;36732;47.980;11.652;2023-04-24T08:00:39;14.40;64.30
50758;DHT22;36732;47.980;11.652;2023-04-24T08:03:05;14.40;64.50
50758;DHT22;36732;47.980;11.652;2023-04-24T08:05:31;14.40;64.40
50758;DHT22;36732;47.980;11.652;2023-04-24T08:07:57;14.40;64.30
50758;DHT22;36732;47.980;11.652;2023-04-24T08:10:23;14.40;64.30
50758;DHT22;36732;47.980;11.652;2023-04-24T08:12:49;14.40;64.20
50758;DHT22;36732;47.980;11.652;2023-04-24T08:15:15;14.40;64.00
50758;DHT22;36732;47.980;11.652;2023-04-24T08:17:40;14.40;64.00
50758;DHT22;36732;47.980;11.652;2023-04-24T08:20:10;14.40;64.00
50758;DHT22;36732;47.980;11.652;2023-04-24T08:22:42;14.40;63.90
50758;DHT22;36732;47.980;11.652;2023-04-24T08:25:09;14.40;63.90
50758;DHT22;36732;47.980;11.652;2023-04-24T08:27:36;14.40;63.90
50758;DHT22;36732;47.980;11.652;2023-04-24T08:30:03;14.40;63.90
50758;DHT22;36732;47.980;11.652;2023-04-24T08:32:29;14.40;63.90
50758;DHT22;36732;47.980;11.652;2023-04-24T08:34:56;14.40;63.80
50758;DHT22;36732;47.980;11.652;2023-04-24T08:37:22;14.40;63.70
50758;DHT22;36732;47.980;11.652;2023-04-24T08:39:52;14.40;63.40
50758;DHT22;36732;47.980;11.652;2023-04-24T08:42:18;14.40;63.20
50758;DHT22;36732;47.980;11.652;2023-04-24T08:44:45;14.40;63.40
50758;DHT22;36732;47.980;11.652;2023-04-24T08:47:11;14.40;63.30
50758;DHT22;36732;47.980;11.652;2023-04-24T08:49:38;14.40;63.10
50758;DHT22;36732;47.980;11.652;2023-04-24T08:52:05;14.40;63.10
50758;DHT22;36732;47.980;11.652;2023-04-24T08:54:33;14.40;63.00
50758;DHT22;36732;47.980;11.652;2023-04-24T08:57:00;14.40;63.00
50758;DHT22;36732;47.980;11.652;2023-04-24T08:59:28;14.40;62.80
50758;DHT22;36732;47.980;11.652;2023-04-24T09:01:55;14.40;62.50
50758;DHT22;36732;47.980;11.652;2023-04-24T09:04:22;14.40;62.40
50758;DHT22;36732;47.980;11.652;2023-04-24T09:06:51;14.40;63.00
50758;DHT22;36732;47.980;11.652;2023-04-24T09:09:19;14.30;62.10
50758;DHT22;36732;47.980;11.652;2023-04-24T09:11:45;14.30;62.80
50758;DHT22;36732;47.980;11.652;2023-04-24T09:14:11;14.30;62.20
50758;DHT22;36732;47.980;11.652;2023-04-24T09:16:38;14.30;62.20
50758;DHT22;36732;47.980;11.652;2023-04-24T09:19:04;14.30;62.00
50758;DHT22;36732;47.980;11.652;2023-04-24T09:21:33;14.30;62.10
50758;DHT22;36732;47.980;11.652;2023-04-24T09:24:02;14.30;61.80
50758;DHT22;36732;47.980;11.652;2023-04-24T09:26:32;14.30;61.90
50758;DHT22;36732;47.980;11.652;2023-04-24T09:29:00;14.30;61.50
50758;DHT22;36732;47.980;11.652;2023-04-24T09:31:27;14.30;61.60
50758;DHT22;36732;47.980;11.652;2023-04-24T09:34:03;14.30;61.80
50758;DHT22;36732;47.980;11.652;2023-04-24T09:36:41;14.30;61.80
50758;DHT22;36732;47.980;11.652;2023-04-24T09:39:10;14.30;61.80
50758;DHT22;36732;47.980;11.652;2023-04-24T09:41:55;14.30;62.00
50758;DHT22;36732;47.980;11.652;2023-04-24T09:44:25;14.30;62.00
50758;DHT22;36732;47.980;11.652;2023-04-24T09:46:54;14.30;62.00
50758;DHT22;36732;47.980;11.652;2023-04-24T09:49:26;14.40;62.10
50758;DHT22;36732;47.980;11.652;2023-04-24T09:52:05;14.30;62.20
50758;DHT22;36732;47.980;11.652;2023-04-24T09:54:33;14.40;62.20
50758;DHT22;36732;47.980;11.652;2023-04-24T09:56:59;14.40;62.30
50758;DHT22;36732;47.980;11.652;2023-04-24T09:59:26;14.40;62.30
50758;DHT22;36732;47.980;11.652;2023-04-24T10:01:51;14.40;62.20
50758;DHT22;36732;47.980;11.652;2023-04-24T10:04:18;14.40;62.20
50758;DHT22;36732;47.980;11.652;2023-04-24T10:06:46;14.50;62.20
50758;DHT22;36732;47.980;11.652;2023-04-24T10:09:14;14.50;62.40
50758;DHT22;36732;47.980;11.652;2023-04-24T10:11:45;14.50;62.20
50758;DHT22;36732;47.980;11.652;2023-04-24T10:14:13;14.50;61.60
50758;DHT22;36732;47.980;11.652;2023-04-24T10:16:44;14.50;61.90
50758;DHT22;36732;47.980;11.652;2023-04-24T10:19:12;14.60;62.10
50758;DHT22;36732;47.980;11.652;2023-04-24T10:21:40;14.60;61.80
50758;DHT22;36732;47.980;11.652;2023-04-24T10:24:17;14.60;61.80
50758;DHT22;36732;47.980;11.652;2023-04-24T10:26:46;14.60;61.80
50758;DHT22;36732;47.980;11.652;2023-04-24T10:29:14;14.60;62.10
50758;DHT22;36732;47.980;11.652;2023-04-24T10:31:42;14.70;61.90
50758;DHT22;36732;47.980;11.652;2023-04-24T10:34:11;14.70;61.90
50758;DHT22;36732;47.980;11.652;2023-04-24T10:36:40;14.60;61.70
50758;DHT22;36732;47.980;11.652;2023-04-24T10:39:11;14.70;61.30
50758;DHT22;36732;47.980;11.652;2023-04-24T10:41:38;14.70;61.40
50758;DHT22;36732;47.980;11.652;2023-04-24T10:46:34;14.70;61.60
50758;DHT22;36732;47.980;11.652;2023-04-24T10:49:04;14.70;61.30
50758;DHT22;36732;47.980;11.652;2023-04-24T10:51:53;14.70;61.20
50758;DHT22;36732;47.980;11.652;2023-04-24T10:54:27;14.70;60.60
50758;DHT22;36732;47.980;11.652;2023-04-24T10:59:46;14.80;60.10
50758;DHT22;36732;47.980;11.652;2023-04-24T11:02:17;14.80;60.80
50758;DHT22;36732;47.980;11.652;2023-04-24T11:04:44;14.80;60.60
50758;DHT22;36732;47.980;11.652;2023-04-24T11:07:11;14.80;60.70
50758;DHT22;36732;47.980;11.652;2023-04-24T11:09:37;14.80;60.00
50758;DHT22;36732;47.980;11.652;2023-04-24T11:12:06;14.80;60.00
50758;DHT22;36732;47.980;11.652;2023-04-24T11:17:38;14.70;59.50
50758;DHT22;36732;47.980;11.652;2023-04-24T11:20:10;14.70;59.80
50758;DHT22;36732;47.980;11.652;2023-04-24T11:22:38;14.70;60.10
50758;DHT22;36732;47.980;11.652;2023-04-24T11:25:08;14.70;60.10
50758;DHT22;36732;47.980;11.652;2023-04-24T11:27:42;14.70;60.00
50758;DHT22;36732;47.980;11.652;2023-04-24T11:30:10;14.70;59.80
50758;DHT22;36732;47.980;11.652;2023-04-24T11:32:40;14.70;60.00
50758;DHT22;36732;47.980;11.652;2023-04-24T11:35:21;14.60;60.20
50758;DHT22;36732;47.980;11.652;2023-04-24T11:37:51;14.60;59.70
50758;DHT22;36732;47.980;11.652;2023-04-24T11:40:20;14.70;59.80
50758;DHT22;36732;47.980;11.652;2023-04-24T11:42:49;14.60;59.50
50758;DHT22;36732;47.980;11.652;2023-04-24T11:45:29;14.70;59.60
50758;DHT22;36732;47.980;11.652;2023-04-24T11:47:56;14.70;59.10
50758;DHT22;36732;47.980;11.652;2023-04-24T11:50:24;14.60;59.30
50758;DHT22;36732;47.980;11.652;2023-04-24T11:52:52;14.60;59.00
50758;DHT22;36732;47.980;11.652;2023-04-24T11:57:45;14.70;59.30
50758;DHT22;36732;47.980;11.652;2023-04-24T12:00:17;14.60;59.50
50758;DHT22;36732;47.980;11.652;2023-04-24T12:02:44;14.70;59.50
50758;DHT22;36732;47.980;11.652;2023-04-24T12:05:23;14.70;60.00
50758;DHT22;36732;47.980;11.652;2023-04-24T12:07:51;14.70;59.90
50758;DHT22;36732;47.980;11.652;2023-04-24T12:10:25;14.70;60.00
50758;DHT22;36732;47.980;11.652;2023-04-24T12:12:52;14.70;59.50
50758;DHT22;36732;47.980;11.652;2023-04-24T12:15:20;14.80;59.90
50758;DHT22;36732;47.980;11.652;2023-04-24T12:17:46;14.80;59.60
50758;DHT22;36732;47.980;11.652;2023-04-24T12:20:14;14.80;59.80
50758;DHT22;36732;47.980;11.652;2023-04-24T12:23:06;14.80;59.80
50758;DHT22;36732;47.980;11.652;2023-04-24T12:25:32;14.80;59.80
50758;DHT22;36732;47.980;11.652;2023-04-24T12:30:35;14.80;59.00
50758;DHT22;36732;47.980;11.652;2023-04-24T12:33:04;14.70;58.90
50758;DHT22;36732;47.980;11.652;2023-04-24T12:35:32;14.70;58.70
50758;DHT22;36732;47.980;11.652;2023-04-24T12:38:09;14.60;58.20
50758;DHT22;36732;47.980;11.652;2023-04-24T12:40:35;14.60;57.90
50758;DHT22;36732;47.980;11.652;2023-04-24T12:43:01;14.50;58.30
50758;DHT22;36732;47.980;11.652;2023-04-24T12:45:27;14.40;58.50
50758;DHT22;36732;47.980;11.652;2023-04-24T12:47:53;14.40;58.90
50758;DHT22;36732;47.980;11.652;2023-04-24T12:50:19;14.30;59.10
50758;DHT22;36732;47.980;11.652;2023-04-24T12:52:45;14.30;59.40
50758;DHT22;36732;47.980;11.652;2023-04-24T12:55:11;14.30;59.80
50758;DHT22;36732;47.980;11.652;2023-04-24T12:57:38;14.20;60.10
50758;DHT22;36732;47.980;11.652;2023-04-24T13:00:06;14.20;60.60
50758;DHT22;36732;47.980;11.652;2023-04-24T13:02:34;14.20;61.10
50758;DHT22;36732;47.980;11.652;2023-04-24T13:05:00;14.20;61.30
50758;DHT22;36732;47.980;11.652;2023-04-24T13:07:26;14.20;61.70
50758;DHT22;36732;47.980;11.652;2023-04-24T13:09:53;14.10;61.80
50758;DHT22;36732;47.980;11.652;2023-04-24T13:12:20;14.10;61.70
50758;DHT22;36732;47.980;11.652;2023-04-24T13:14:46;14.10;61.40
50758;DHT22;36732;47.980;11.652;2023-04-24T13:17:12;14.10;61.50
50758;DHT22;36732;47.980;11.652;2023-04-24T13:19:41;14.10;61.40
50758;DHT22;36732;47.980;11.652;2023-04-24T13:22:10;14.10;61.40
50758;DHT22;36732;47.980;11.652;2023-04-24T13:24:36;14.10;61.60
50758;DHT22;36732;47.980;11.652;2023-04-24T13:27:03;14.10;61.90
50758;DHT22;36732;47.980;11.652;2023-04-24T13:29:29;14.10;61.90
50758;DHT22;36732;47.980;11.652;2023-04-24T13:31:55;14.10;62.10
50758;DHT22;36732;47.980;11.652;2023-04-24T13:34:24;14.20;62.20
50758;DHT22;36732;47.980;11.652;2023-04-24T13:36:55;14.20;62.30
50758;DHT22;36732;47.980;11.652;2023-04-24T13:39:23;14.20;62.10
50758;DHT22;36732;47.980;11.652;2023-04-24T13:41:49;14.20;61.90
50758;DHT22;36732;47.980;11.652;2023-04-24T13:44:16;14.20;61.70
50758;DHT22;36732;47.980;11.652;2023-04-24T13:46:44;14.30;61.80
50758;DHT22;36732;47.980;11.652;2023-04-24T13:49:12;14.30;61.60
50758;DHT22;36732;47.980;11.652;2023-04-24T13:51:38;14.30;61.50
50758;DHT22;36732;47.980;11.652;2023-04-24T13:54:05;14.30;61.50
50758;DHT22;36732;47.980;11.652;2023-04-24T13:56:31;14.30;61.40
50758;DHT22;36732;47.980;11.652;2023-04-24T13:58:56;14.40;61.20
50758;DHT22;36732;47.980;11.652;2023-04-24T14:01:22;14.30;60.80
50758;DHT22;36732;47.980;11.652;2023-04-24T14:03:52;14.30;60.70
50758;DHT22;36732;47.980;11.652;2023-04-24T14:06:18;14.40;60.90
50758;DHT22;36732;47.980;11.652;2023-04-24T14:08:44;14.30;61.00
50758;DHT22;36732;47.980;11.652;2023-04-24T14:11:10;14.30;61.40
50758;DHT22;36732;47.980;11.652;2023-04-24T14:13:40;14.30;61.60
50758;DHT22;36732;47.980;11.652;2023-04-24T14:16:06;14.30;61.70
50758;DHT22;36732;47.980;11.652;2023-04-24T14:18:32;14.30;61.70
50758;DHT22;36732;47.980;11.652;2023-04-24T14:20:58;14.30;61.60
50758;DHT22;36732;47.980;11.652;2023-04-24T14:23:24;14.30;61.70
50758;DHT22;36732;47.980;11.652;2023-04-24T14:25:50;14.30;61.60
50758;DHT22;36732;47.980;11.652;2023-04-24T14:28:18;14.30;61.40
50758;DHT22;36732;47.980;11.652;2023-04-24T14:30:44;14.30;61.10
50758;DHT22;36732;47.980;11.652;2023-04-24T14:33:10;14.30;60.90
50758;DHT22;36732;47.980;11.652;2023-04-24T14:35:37;14.30;60.70
50758;DHT22;36732;47.980;11.652;2023-04-24T14:38:03;14.30;61.00
50758;DHT22;36732;47.980;11.652;2023-04-24T14:40:28;14.30;61.20
50758;DHT22;36732;47.980;11.652;2023-04-24T14:42:54;14.30;61.30
50758;DHT22;36732;47.980;11.652;2023-04-24T14:45:22;14.30;61.50
50758;DHT22;36732;47.980;11.652;2023-04-24T14:47:48;14.30;61.70
50758;DHT22;36732;47.980;11.652;2023-04-24T14:50:13;14.30;61.60
50758;DHT22;36732;47.980;11.652;2023-04-24T14:52:39;14.30;61.40
50758;DHT22;36732;47.980;11.652;2023-04-24T14:55:05;14.30;61.40
50758;DHT22;36732;47.980;11.652;2023-04-24T14:57:32;14.30;61.20
50758;DHT22;36732;47.980;11.652;2023-04-24T14:59:58;14.40;60.90
50758;DHT22;36732;47.980;11.652;2023-04-24T15:02:24;14.40;61.10
50758;DHT22;36732;47.980;11.652;2023-04-24T15:04:50;14.40;60.90
50758;DHT22;36732;47.980;11.652;2023-04-24T15:07:19;14.40;60.80
50758;DHT22;36732;47.980;11.652;2023-04-24T15:09:44;14.40;60.20
50758;DHT22;36732;47.980;11.652;2023-04-24T15:12:12;14.40;60.10
50758;DHT22;36732;47.980;11.652;2023-04-24T15:14:38;14.40;59.90
50758;DHT22;36732;47.980;11.652;2023-04-24T15:17:03;14.50;59.90
50758;DHT22;36732;47.980;11.652;2023-04-24T15:19:29;14.50;59.60
50758;DHT22;36732;47.980;11.652;2023-04-24T15:21:55;14.40;59.50
50758;DHT22;36732;47.980;11.652;2023-04-24T15:24:20;14.50;59.30
50758;DHT22;36732;47.980;11.652;2023-04-24T15:26:46;14.50;59.60